Terminal Aerodrome Forecast
Issued by NWS Wichita, KS

Home | Current Version | Previous Version | Graphics & Text | Print | Product List | Glossary On
Versions: 1 2 3 4 5 6 7 8 9 10 11 12 13 14 15
000
FTUS43 KICT 301100
TAFICT
TAF
KICT 301124Z 3012/0112 15010KT P6SM SCT120 OVC250
     FM301500 18012G20KT P6SM SCT060 BKN200
     FM302100 18015G22KT P6SM BKN060
     FM010000 18015KT P6SM VCTS BKN060CB
     FM010500 18014KT P6SM VCSH BKN080=

USA.gov is the U.S. government's official web portal to all federal, state and local government web resources and services.